sensor_id;sensor_type;location;lat;lon;timestamp;pressure;altitude;pressure_sealevel;temperature;humidity
68525;BME280;55524;51.380;13.372;2023-05-22T00:00:09;100558.84;;;16.95;75.59
68525;BME280;55524;51.380;13.372;2023-05-22T00:02:38;100548.91;;;16.98;74.84
68525;BME280;55524;51.380;13.372;2023-05-22T00:05:09;100540.84;;;16.99;74.65
68525;BME280;55524;51.380;13.372;2023-05-22T00:07:37;100549.78;;;16.98;74.21
68525;BME280;55524;51.380;13.372;2023-05-22T00:10:22;100552.84;;;16.92;74.92
68525;BME280;55524;51.380;13.372;2023-05-22T00:12:48;100552.28;;;16.87;74.29
68525;BME280;55524;51.380;13.372;2023-05-22T00:15:14;100556.28;;;16.80;75.01
68525;BME280;55524;51.380;13.372;2023-05-22T00:17:40;100558.34;;;16.75;75.12
68525;BME280;55524;51.380;13.372;2023-05-22T00:20:07;100557.66;;;16.71;75.12
68525;BME280;55524;51.380;13.372;2023-05-22T00:22:36;100554.31;;;16.67;75.12
68525;BME280;55524;51.380;13.372;2023-05-22T00:25:03;100549.16;;;16.64;74.86
68525;BME280;55524;51.380;13.372;2023-05-22T00:27:30;100549.16;;;16.64;74.71
68525;BME280;55524;51.380;13.372;2023-05-22T00:29:57;100545.72;;;16.62;74.86
68525;BME280;55524;51.380;13.372;2023-05-22T00:32:25;100546.78;;;16.60;74.55
68525;BME280;55524;51.380;13.372;2023-05-22T00:34:51;100543.63;;;16.53;75.21
68525;BME280;55524;51.380;13.372;2023-05-22T00:37:20;100547.41;;;16.49;74.80
68525;BME280;55524;51.380;13.372;2023-05-22T00:39:47;100550.25;;;16.46;75.62
68525;BME280;55524;51.380;13.372;2023-05-22T00:42:13;100549.59;;;16.42;75.02
68525;BME280;55524;51.380;13.372;2023-05-22T00:44:40;100554.25;;;16.39;75.13
68525;BME280;55524;51.380;13.372;2023-05-22T00:47:06;100555.31;;;16.36;75.50
68525;BME280;55524;51.380;13.372;2023-05-22T00:49:33;100552.97;;;16.30;75.87
68525;BME280;55524;51.380;13.372;2023-05-22T00:52:00;100548.88;;;16.25;76.22
68525;BME280;55524;51.380;13.372;2023-05-22T00:54:27;100550.28;;;16.16;76.00
68525;BME280;55524;51.380;13.372;2023-05-22T00:56:53;100543.78;;;16.06;76.33
68525;BME280;55524;51.380;13.372;2023-05-22T00:59:20;100553.94;;;15.99;76.87
68525;BME280;55524;51.380;13.372;2023-05-22T01:01:46;100546.38;;;15.91;76.76
68525;BME280;55524;51.380;13.372;2023-05-22T01:04:13;100547.59;;;15.86;77.47
68525;BME280;55524;51.380;13.372;2023-05-22T01:06:40;100543.28;;;15.83;76.41
68525;BME280;55524;51.380;13.372;2023-05-22T01:09:07;100542.03;;;15.74;76.70
68525;BME280;55524;51.380;13.372;2023-05-22T01:31:08;100536.38;;;15.65;76.66
68525;BME280;55524;51.380;13.372;2023-05-22T01:33:50;100539.63;;;15.70;75.79
68525;BME280;55524;51.380;13.372;2023-05-22T01:36:20;100540.56;;;15.69;75.61
68525;BME280;55524;51.380;13.372;2023-05-22T01:38:50;100541.53;;;15.68;75.67
68525;BME280;55524;51.380;13.372;2023-05-22T01:41:18;100528.28;;;15.66;75.51
68525;BME280;55524;51.380;13.372;2023-05-22T01:43:46;100537.25;;;15.64;75.83
68525;BME280;55524;51.380;13.372;2023-05-22T01:46:12;100536.66;;;15.59;76.04
68525;BME280;55524;51.380;13.372;2023-05-22T01:48:39;100547.69;;;15.53;76.92
68525;BME280;55524;51.380;13.372;2023-05-22T01:51:49;100557.97;;;15.43;77.40
68525;BME280;55524;51.380;13.372;2023-05-22T01:54:31;100556.78;;;15.33;78.11
68525;BME280;55524;51.380;13.372;2023-05-22T01:57:06;100558.31;;;15.21;78.87
68525;BME280;55524;51.380;13.372;2023-05-22T02:02:24;100558.03;;;15.10;78.90
68525;BME280;55524;51.380;13.372;2023-05-22T02:05:02;100554.59;;;15.08;78.61
68525;BME280;55524;51.380;13.372;2023-05-22T02:07:31;100553.72;;;15.07;79.16
68525;BME280;55524;51.380;13.372;2023-05-22T02:09:58;100557.59;;;15.02;79.41
68525;BME280;55524;51.380;13.372;2023-05-22T02:12:26;100556.91;;;14.98;79.64
68525;BME280;55524;51.380;13.372;2023-05-22T02:14:52;100557.22;;;14.92;79.77
68525;BME280;55524;51.380;13.372;2023-05-22T02:17:19;100560.22;;;14.86;79.95
68525;BME280;55524;51.380;13.372;2023-05-22T02:19:46;100554.34;;;14.79;80.58
68525;BME280;55524;51.380;13.372;2023-05-22T02:22:13;100557.28;;;14.74;80.62
68525;BME280;55524;51.380;13.372;2023-05-22T02:24:46;100549.69;;;14.67;81.07
68525;BME280;55524;51.380;13.372;2023-05-22T02:27:13;100549.78;;;14.65;81.06
68525;BME280;55524;51.380;13.372;2023-05-22T02:29:40;100544.69;;;14.61;81.46
68525;BME280;55524;51.380;13.372;2023-05-22T02:32:06;100547.69;;;14.55;81.68
68525;BME280;55524;51.380;13.372;2023-05-22T02:34:33;100545.88;;;14.55;81.71
68525;BME280;55524;51.380;13.372;2023-05-22T02:37:00;100534.44;;;14.53;81.72
68525;BME280;55524;51.380;13.372;2023-05-22T02:39:29;100537.31;;;14.48;81.94
68525;BME280;55524;51.380;13.372;2023-05-22T02:41:55;100545.63;;;14.42;82.13
68525;BME280;55524;51.380;13.372;2023-05-22T02:44:21;100536.94;;;14.39;82.38
68525;BME280;55524;51.380;13.372;2023-05-22T02:46:48;100535.28;;;14.36;82.71
68525;BME280;55524;51.380;13.372;2023-05-22T02:49:14;100537.34;;;14.31;82.98
68525;BME280;55524;51.380;13.372;2023-05-22T02:51:40;100544.69;;;14.26;83.31
68525;BME280;55524;51.380;13.372;2023-05-22T02:54:13;100538.44;;;14.27;83.32
68525;BME280;55524;51.380;13.372;2023-05-22T02:56:39;100530.44;;;14.27;83.39
68525;BME280;55524;51.380;13.372;2023-05-22T02:59:05;100530.44;;;14.27;83.31
68525;BME280;55524;51.380;13.372;2023-05-22T03:01:32;100528.81;;;14.24;83.25
68525;BME280;55524;51.380;13.372;2023-05-22T03:03:59;100526.16;;;14.24;83.35
68525;BME280;55524;51.380;13.372;2023-05-22T03:06:25;100527.19;;;14.22;83.62
68525;BME280;55524;51.380;13.372;2023-05-22T03:08:51;100533.50;;;14.19;84.36
68525;BME280;55524;51.380;13.372;2023-05-22T03:11:18;100532.78;;;14.16;84.33
68525;BME280;55524;51.380;13.372;2023-05-22T03:13:44;100527.56;;;14.14;84.05
68525;BME280;55524;51.380;13.372;2023-05-22T03:16:10;100535.78;;;14.10;84.85
68525;BME280;55524;51.380;13.372;2023-05-22T03:18:37;100540.38;;;14.06;85.08
68525;BME280;55524;51.380;13.372;2023-05-22T03:21:03;100531.56;;;14.06;84.92
68525;BME280;55524;51.380;13.372;2023-05-22T03:23:30;100531.69;;;14.02;85.02
68525;BME280;55524;51.380;13.372;2023-05-22T03:25:56;100539.69;;;14.02;84.96
68525;BME280;55524;51.380;13.372;2023-05-22T03:28:22;100540.59;;;14.01;85.01
68525;BME280;55524;51.380;13.372;2023-05-22T03:30:49;100533.66;;;13.99;85.24
68525;BME280;55524;51.380;13.372;2023-05-22T03:33:15;100531.00;;;13.99;85.03
68525;BME280;55524;51.380;13.372;2023-05-22T03:35:41;100530.91;;;14.00;85.14
68525;BME280;55524;51.380;13.372;2023-05-22T03:38:09;100539.81;;;13.99;85.42
68525;BME280;55524;51.380;13.372;2023-05-22T03:40:36;100526.44;;;14.01;84.61
68525;BME280;55524;51.380;13.372;2023-05-22T03:43:02;100530.66;;;14.05;84.44
68525;BME280;55524;51.380;13.372;2023-05-22T03:45:28;100518.28;;;14.06;84.59
68525;BME280;55524;51.380;13.372;2023-05-22T03:47:54;100522.50;;;14.10;84.49
68525;BME280;55524;51.380;13.372;2023-05-22T03:50:21;100531.22;;;14.12;84.86
68525;BME280;55524;51.380;13.372;2023-05-22T03:52:47;100529.38;;;14.14;84.81
68525;BME280;55524;51.380;13.372;2023-05-22T03:55:13;100530.94;;;14.18;84.72
68525;BME280;55524;51.380;13.372;2023-05-22T03:57:41;100527.94;;;14.24;84.60
68525;BME280;55524;51.380;13.372;2023-05-22T04:00:07;100525.53;;;14.19;84.86
68525;BME280;55524;51.380;13.372;2023-05-22T04:02:38;100529.75;;;14.23;85.00
68525;BME280;55524;51.380;13.372;2023-05-22T04:05:08;100529.66;;;14.25;84.97
68525;BME280;55524;51.380;13.372;2023-05-22T04:07:35;100525.75;;;14.32;84.49
68525;BME280;55524;51.380;13.372;2023-05-22T04:10:03;100529.91;;;14.38;84.13
68525;BME280;55524;51.380;13.372;2023-05-22T04:12:29;100523.31;;;14.45;84.16
68525;BME280;55524;51.380;13.372;2023-05-22T04:14:56;100527.50;;;14.50;83.66
68525;BME280;55524;51.380;13.372;2023-05-22T04:17:24;100524.59;;;14.55;83.46
68525;BME280;55524;51.380;13.372;2023-05-22T04:19:51;100529.59;;;14.61;83.47
68525;BME280;55524;51.380;13.372;2023-05-22T04:22:17;100525.66;;;14.68;83.28
68525;BME280;55524;51.380;13.372;2023-05-22T04:24:43;100528.75;;;14.76;82.90
68525;BME280;55524;51.380;13.372;2023-05-22T04:27:14;100532.66;;;14.87;82.31
68525;BME280;55524;51.380;13.372;2023-05-22T04:29:41;100527.34;;;14.87;82.11
68525;BME280;55524;51.380;13.372;2023-05-22T04:32:07;100526.56;;;15.00;81.97
68525;BME280;55524;51.380;13.372;2023-05-22T04:34:36;100524.63;;;15.04;81.65
68525;BME280;55524;51.380;13.372;2023-05-22T04:37:03;100527.81;;;15.11;81.45
68525;BME280;55524;51.380;13.372;2023-05-22T04:39:29;100524.88;;;15.15;81.30
68525;BME280;55524;51.380;13.372;2023-05-22T04:41:56;100525.31;;;15.23;80.84
68525;BME280;55524;51.380;13.372;2023-05-22T04:44:23;100523.19;;;15.30;80.97
68525;BME280;55524;51.380;13.372;2023-05-22T04:46:50;100529.13;;;15.35;80.11
68525;BME280;55524;51.380;13.372;2023-05-22T04:49:16;100525.94;;;15.44;80.51
68525;BME280;55524;51.380;13.372;2023-05-22T04:51:42;100529.22;;;15.49;80.45
68525;BME280;55524;51.380;13.372;2023-05-22T04:54:08;100532.63;;;15.52;80.08
68525;BME280;55524;51.380;13.372;2023-05-22T04:56:35;100534.97;;;15.58;79.97
68525;BME280;55524;51.380;13.372;2023-05-22T04:59:01;100530.47;;;15.58;79.86
68525;BME280;55524;51.380;13.372;2023-05-22T05:01:29;100529.91;;;15.69;79.71
68525;BME280;55524;51.380;13.372;2023-05-22T05:03:55;100528.78;;;15.73;79.43
68525;BME280;55524;51.380;13.372;2023-05-22T05:06:22;100528.34;;;15.81;79.88
68525;BME280;55524;51.380;13.372;2023-05-22T05:08:48;100529.03;;;15.84;79.34
68525;BME280;55524;51.380;13.372;2023-05-22T05:11:14;100522.03;;;15.97;78.51
68525;BME280;55524;51.380;13.372;2023-05-22T05:13:41;100526.41;;;15.98;78.60
68525;BME280;55524;51.380;13.372;2023-05-22T05:16:07;100516.94;;;16.09;78.55
68525;BME280;55524;51.380;13.372;2023-05-22T05:18:34;100519.84;;;16.20;78.48
68525;BME280;55524;51.380;13.372;2023-05-22T05:21:00;100522.13;;;16.26;78.47
68525;BME280;55524;51.380;13.372;2023-05-22T05:23:26;100517.16;;;16.20;77.70
68525;BME280;55524;51.380;13.372;2023-05-22T05:25:53;100511.66;;;16.37;77.62
68525;BME280;55524;51.380;13.372;2023-05-22T05:28:19;100512.63;;;16.51;77.44
68525;BME280;55524;51.380;13.372;2023-05-22T05:30:45;100508.34;;;16.62;77.20
68525;BME280;55524;51.380;13.372;2023-05-22T05:33:12;100505.22;;;16.56;76.86
68525;BME280;55524;51.380;13.372;2023-05-22T05:35:38;100498.94;;;16.71;76.51
68525;BME280;55524;51.380;13.372;2023-05-22T05:38:04;100504.59;;;16.81;76.97
68525;BME280;55524;51.380;13.372;2023-05-22T05:40:31;100504.84;;;16.90;76.40
68525;BME280;55524;51.380;13.372;2023-05-22T05:42:57;100497.06;;;16.87;75.50
68525;BME280;55524;51.380;13.372;2023-05-22T05:45:24;100499.22;;;17.09;75.54
68525;BME280;55524;51.380;13.372;2023-05-22T05:47:51;100487.09;;;17.18;74.55
68525;BME280;55524;51.380;13.372;2023-05-22T05:50:17;100498.38;;;17.09;75.27
68525;BME280;55524;51.380;13.372;2023-05-22T05:52:43;100499.50;;;17.46;75.62
68525;BME280;55524;51.380;13.372;2023-05-22T05:55:10;100488.47;;;17.65;75.46
68525;BME280;55524;51.380;13.372;2023-05-22T05:57:36;100486.94;;;17.48;73.95
68525;BME280;55524;51.380;13.372;2023-05-22T06:00:02;100478.09;;;17.60;73.33
68525;BME280;55524;51.380;13.372;2023-05-22T06:02:30;100493.50;;;17.84;74.55
68525;BME280;55524;51.380;13.372;2023-05-22T06:04:57;100478.84;;;17.89;73.17
68525;BME280;55524;51.380;13.372;2023-05-22T06:07:23;100471.41;;;18.07;72.89
68525;BME280;55524;51.380;13.372;2023-05-22T06:09:50;100476.16;;;18.29;72.95
68525;BME280;55524;51.380;13.372;2023-05-22T06:12:16;100486.88;;;18.42;73.88
68525;BME280;55524;51.380;13.372;2023-05-22T06:14:43;100467.81;;;18.34;72.07
68525;BME280;55524;51.380;13.372;2023-05-22T06:17:09;100480.22;;;18.48;72.49
68525;BME280;55524;51.380;13.372;2023-05-22T06:19:36;100479.13;;;18.25;73.03
68525;BME280;55524;51.380;13.372;2023-05-22T06:22:02;100480.22;;;18.22;73.17
68525;BME280;55524;51.380;13.372;2023-05-22T06:24:28;100477.03;;;18.42;72.52
68525;BME280;55524;51.380;13.372;2023-05-22T06:26:55;100476.38;;;18.52;73.15
68525;BME280;55524;51.380;13.372;2023-05-22T06:29:21;100481.81;;;18.63;73.35
68525;BME280;55524;51.380;13.372;2023-05-22T06:31:48;100480.03;;;18.76;73.06
68525;BME280;55524;51.380;13.372;2023-05-22T06:34:14;100471.56;;;18.82;72.62
68525;BME280;55524;51.380;13.372;2023-05-22T06:36:40;100476.25;;;18.91;72.51
68525;BME280;55524;51.380;13.372;2023-05-22T06:39:08;100469.84;;;18.94;72.36
68525;BME280;55524;51.380;13.372;2023-05-22T06:41:34;100486.22;;;19.02;73.52
68525;BME280;55524;51.380;13.372;2023-05-22T06:44:01;100474.47;;;19.16;72.17
68525;BME280;55524;51.380;13.372;2023-05-22T06:46:28;100457.28;;;19.31;71.28
68525;BME280;55524;51.380;13.372;2023-05-22T06:48:54;100471.44;;;19.33;72.21
68525;BME280;55524;51.380;13.372;2023-05-22T06:51:20;100466.53;;;19.51;71.05
68525;BME280;55524;51.380;13.372;2023-05-22T06:53:47;100475.97;;;19.57;71.96
68525;BME280;55524;51.380;13.372;2023-05-22T06:56:13;100455.16;;;19.84;70.56
68525;BME280;55524;51.380;13.372;2023-05-22T06:58:39;100450.41;;;19.88;69.89
68525;BME280;55524;51.380;13.372;2023-05-22T07:01:06;100443.50;;;20.08;69.72
68525;BME280;55524;51.380;13.372;2023-05-22T07:03:32;100443.53;;;20.30;68.59
68525;BME280;55524;51.380;13.372;2023-05-22T07:05:59;100440.47;;;20.35;68.25
68525;BME280;55524;51.380;13.372;2023-05-22T07:08:27;100434.09;;;20.60;67.70
68525;BME280;55524;51.380;13.372;2023-05-22T07:10:53;100436.50;;;20.85;66.95
68525;BME280;55524;51.380;13.372;2023-05-22T07:13:19;100433.56;;;21.11;66.54
68525;BME280;55524;51.380;13.372;2023-05-22T07:15:46;100420.06;;;21.22;65.25
68525;BME280;55524;51.380;13.372;2023-05-22T07:18:12;100430.44;;;21.38;65.59
68525;BME280;55524;51.380;13.372;2023-05-22T07:20:40;100426.44;;;21.65;65.30
68525;BME280;55524;51.380;13.372;2023-05-22T07:23:06;100416.38;;;21.78;64.40
68525;BME280;55524;51.380;13.372;2023-05-22T07:25:34;100403.22;;;21.84;62.85
68525;BME280;55524;51.380;13.372;2023-05-22T07:28:00;100405.94;;;22.26;63.79
68525;BME280;55524;51.380;13.372;2023-05-22T07:30:29;100388.94;;;22.26;61.11
68525;BME280;55524;51.380;13.372;2023-05-22T07:32:55;100379.78;;;22.38;60.19
68525;BME280;55524;51.380;13.372;2023-05-22T07:35:21;100388.53;;;22.61;60.88
68525;BME280;55524;51.380;13.372;2023-05-22T07:37:48;100371.97;;;22.66;59.77
68525;BME280;55524;51.380;13.372;2023-05-22T07:40:14;100364.97;;;22.94;59.58
68525;BME280;55524;51.380;13.372;2023-05-22T07:42:40;100351.06;;;23.08;57.98
68525;BME280;55524;51.380;13.372;2023-05-22T07:45:07;100357.47;;;23.46;58.43
68525;BME280;55524;51.380;13.372;2023-05-22T07:47:33;100354.91;;;23.83;58.21
68525;BME280;55524;51.380;13.372;2023-05-22T07:50:00;100333.59;;;23.90;56.04
68525;BME280;55524;51.380;13.372;2023-05-22T07:52:29;100342.09;;;23.95;56.67
68525;BME280;55524;51.380;13.372;2023-05-22T07:54:57;100334.31;;;23.92;55.36
68525;BME280;55524;51.380;13.372;2023-05-22T07:57:23;100332.75;;;24.26;55.81
68525;BME280;55524;51.380;13.372;2023-05-22T07:59:49;100331.28;;;24.51;55.02
68525;BME280;55524;51.380;13.372;2023-05-22T08:02:19;100337.28;;;24.36;55.35
68525;BME280;55524;51.380;13.372;2023-05-22T08:04:45;100318.59;;;24.52;53.26
68525;BME280;55524;51.380;13.372;2023-05-22T08:07:13;100335.66;;;24.52;55.20
68525;BME280;55524;51.380;13.372;2023-05-22T08:09:39;100313.56;;;24.39;53.13
68525;BME280;55524;51.380;13.372;2023-05-22T08:12:06;100312.91;;;24.55;53.17
68525;BME280;55524;51.380;13.372;2023-05-22T08:14:32;100309.53;;;24.71;52.85
68525;BME280;55524;51.380;13.372;2023-05-22T08:16:59;100313.94;;;24.44;52.82
68525;BME280;55524;51.380;13.372;2023-05-22T08:19:25;100315.88;;;24.80;53.16
68525;BME280;55524;51.380;13.372;2023-05-22T08:21:51;100314.34;;;24.49;53.23
68525;BME280;55524;51.380;13.372;2023-05-22T08:24:25;100346.41;;;24.25;55.88
68525;BME280;55524;51.380;13.372;2023-05-22T08:26:55;100354.22;;;24.28;56.63
68525;BME280;55524;51.380;13.372;2023-05-22T08:29:21;100344.50;;;23.98;56.04
68525;BME280;55524;51.380;13.372;2023-05-22T08:31:47;100350.94;;;23.77;56.42
68525;BME280;55524;51.380;13.372;2023-05-22T08:34:14;100358.91;;;23.50;56.69
68525;BME280;55524;51.380;13.372;2023-05-22T08:36:40;100361.47;;;23.61;57.07
68525;BME280;55524;51.380;13.372;2023-05-22T08:39:08;100376.81;;;23.70;58.06
68525;BME280;55524;51.380;13.372;2023-05-22T08:41:34;100358.34;;;23.85;56.96
68525;BME280;55524;51.380;13.372;2023-05-22T08:44:01;100363.16;;;23.62;58.27
68525;BME280;55524;51.380;13.372;2023-05-22T08:46:28;100360.31;;;23.83;56.50
68525;BME280;55524;51.380;13.372;2023-05-22T08:48:57;100352.94;;;23.75;57.37
68525;BME280;55524;51.380;13.372;2023-05-22T08:51:27;100333.06;;;23.76;54.33
68525;BME280;55524;51.380;13.372;2023-05-22T08:53:58;100324.16;;;24.13;54.14
68525;BME280;55524;51.380;13.372;2023-05-22T08:56:25;100302.66;;;24.21;51.96
68525;BME280;55524;51.380;13.372;2023-05-22T08:58:53;100321.22;;;23.97;53.70
68525;BME280;55524;51.380;13.372;2023-05-22T09:01:20;100315.97;;;23.86;54.13
68525;BME280;55524;51.380;13.372;2023-05-22T09:03:47;100311.31;;;24.80;53.34
68525;BME280;55524;51.380;13.372;2023-05-22T09:06:16;100302.19;;;24.63;52.78
68525;BME280;55524;51.380;13.372;2023-05-22T09:08:42;100293.72;;;25.30;51.80
68525;BME280;55524;51.380;13.372;2023-05-22T09:11:09;100284.47;;;25.32;51.03
68525;BME280;55524;51.380;13.372;2023-05-22T09:13:38;100271.03;;;25.66;49.79
68525;BME280;55524;51.380;13.372;2023-05-22T09:16:10;100254.75;;;26.18;48.24
68525;BME280;55524;51.380;13.372;2023-05-22T09:18:38;100247.44;;;26.53;47.09
68525;BME280;55524;51.380;13.372;2023-05-22T09:21:06;100218.34;;;26.29;45.46
68525;BME280;55524;51.380;13.372;2023-05-22T09:23:33;100221.03;;;26.21;45.23
68525;BME280;55524;51.380;13.372;2023-05-22T09:26:00;100213.88;;;26.46;44.46
68525;BME280;55524;51.380;13.372;2023-05-22T09:28:34;100229.13;;;26.55;46.07
68525;BME280;55524;51.380;13.372;2023-05-22T09:31:01;100237.28;;;26.63;45.69
68525;BME280;55524;51.380;13.372;2023-05-22T09:33:29;100228.22;;;27.13;44.75
68525;BME280;55524;51.380;13.372;2023-05-22T09:35:57;100236.88;;;27.17;46.76
68525;BME280;55524;51.380;13.372;2023-05-22T09:38:30;100219.00;;;27.55;45.76
68525;BME280;55524;51.380;13.372;2023-05-22T09:40:57;100198.88;;;27.97;42.53
68525;BME280;55524;51.380;13.372;2023-05-22T09:43:24;100185.94;;;27.43;41.12
68525;BME280;55524;51.380;13.372;2023-05-22T09:45:56;100196.31;;;27.48;42.53
68525;BME280;55524;51.380;13.372;2023-05-22T09:48:23;100187.03;;;28.21;42.08
68525;BME280;55524;51.380;13.372;2023-05-22T09:50:53;100179.19;;;28.26;40.56
68525;BME280;55524;51.380;13.372;2023-05-22T09:53:27;100155.69;;;28.64;38.48
68525;BME280;55524;51.380;13.372;2023-05-22T09:55:56;100146.72;;;27.54;39.07
68525;BME280;55524;51.380;13.372;2023-05-22T09:58:26;100175.94;;;27.28;41.06
68525;BME280;55524;51.380;13.372;2023-05-22T10:00:56;100168.28;;;27.39;40.02
68525;BME280;55524;51.380;13.372;2023-05-22T10:03:25;100174.44;;;27.33;40.81
68525;BME280;55524;51.380;13.372;2023-05-22T10:05:53;100184.94;;;26.87;41.67
68525;BME280;55524;51.380;13.372;2023-05-22T10:08:35;100133.72;;;27.25;36.67
68525;BME280;55524;51.380;13.372;2023-05-22T10:11:03;100143.56;;;27.26;38.30
68525;BME280;55524;51.380;13.372;2023-05-22T10:13:31;100133.44;;;27.59;36.78
68525;BME280;55524;51.380;13.372;2023-05-22T10:16:01;100125.59;;;27.73;35.52
68525;BME280;55524;51.380;13.372;2023-05-22T10:18:29;100127.47;;;26.92;36.36
68525;BME280;55524;51.380;13.372;2023-05-22T10:20:57;100133.72;;;27.09;37.64
68525;BME280;55524;51.380;13.372;2023-05-22T10:23:25;100131.88;;;27.81;37.37
68525;BME280;55524;51.380;13.372;2023-05-22T10:25:53;100131.66;;;28.22;37.08
68525;BME280;55524;51.380;13.372;2023-05-22T10:28:41;100118.69;;;27.62;37.12
68525;BME280;55524;51.380;13.372;2023-05-22T10:34:08;100121.38;;;28.40;36.72
68525;BME280;55524;51.380;13.372;2023-05-22T10:37:20;100114.59;;;28.36;35.75
68525;BME280;55524;51.380;13.372;2023-05-22T10:39:53;100100.28;;;28.42;35.03
68525;BME280;55524;51.380;13.372;2023-05-22T10:42:21;100108.63;;;27.70;36.22
68525;BME280;55524;51.380;13.372;2023-05-22T10:44:48;100095.53;;;27.82;34.82
68525;BME280;55524;51.380;13.372;2023-05-22T10:47:14;100099.78;;;28.39;35.65
68525;BME280;55524;51.380;13.372;2023-05-22T10:49:44;100095.38;;;27.84;35.78
68525;BME280;55524;51.380;13.372;2023-05-22T10:52:11;100074.66;;;28.37;32.21
68525;BME280;55524;51.380;13.372;2023-05-22T10:54:43;100060.25;;;28.89;31.93
68525;BME280;55524;51.380;13.372;2023-05-22T10:57:16;100030.06;;;28.00;28.71
68525;BME280;55524;51.380;13.372;2023-05-22T11:00:05;100052.19;;;28.96;30.50
68525;BME280;55524;51.380;13.372;2023-05-22T11:02:42;100084.16;;;29.16;33.77
68525;BME280;55524;51.380;13.372;2023-05-22T11:07:44;100069.13;;;29.06;32.69
68525;BME280;55524;51.380;13.372;2023-05-22T11:10:10;100064.22;;;29.01;32.64
68525;BME280;55524;51.380;13.372;2023-05-22T11:12:37;100067.56;;;28.88;31.92
68525;BME280;55524;51.380;13.372;2023-05-22T11:15:10;100055.06;;;29.32;31.49
68525;BME280;55524;51.380;13.372;2023-05-22T11:17:40;100044.34;;;29.15;30.31
68525;BME280;55524;51.380;13.372;2023-05-22T11:20:21;100053.22;;;29.54;30.31
68525;BME280;55524;51.380;13.372;2023-05-22T11:22:57;100041.00;;;28.90;31.10
68525;BME280;55524;51.380;13.372;2023-05-22T11:25:25;100052.59;;;29.37;31.44
68525;BME280;55524;51.380;13.372;2023-05-22T11:27:53;100068.03;;;28.39;33.67
68525;BME280;55524;51.380;13.372;2023-05-22T11:30:19;100053.94;;;29.11;32.43
68525;BME280;55524;51.380;13.372;2023-05-22T11:32:49;100045.38;;;29.29;31.08
68525;BME280;55524;51.380;13.372;2023-05-22T11:35:20;100055.31;;;29.22;32.46
68525;BME280;55524;51.380;13.372;2023-05-22T11:37:48;100046.09;;;29.38;31.26
68525;BME280;55524;51.380;13.372;2023-05-22T11:40:23;100045.66;;;29.34;31.51
68525;BME280;55524;51.380;13.372;2023-05-22T11:42:54;100067.53;;;29.71;34.49
68525;BME280;55524;51.380;13.372;2023-05-22T11:45:20;100036.81;;;29.98;30.98
68525;BME280;55524;51.380;13.372;2023-05-22T11:47:46;100017.66;;;30.13;29.40
68525;BME280;55524;51.380;13.372;2023-05-22T11:50:13;100013.78;;;29.64;29.95
68525;BME280;55524;51.380;13.372;2023-05-22T11:52:41;100019.28;;;29.86;30.80
68525;BME280;55524;51.380;13.372;2023-05-22T11:55:09;100027.00;;;29.82;32.15
68525;BME280;55524;51.380;13.372;2023-05-22T11:57:36;100028.13;;;29.73;31.19
68525;BME280;55524;51.380;13.372;2023-05-22T12:00:05;99996.72;;;29.41;28.52
68525;BME280;55524;51.380;13.372;2023-05-22T12:02:33;99994.91;;;30.21;28.99
68525;BME280;55524;51.380;13.372;2023-05-22T12:04:59;100009.28;;;30.14;30.82
68525;BME280;55524;51.380;13.372;2023-05-22T12:07:26;100029.41;;;30.56;32.77
68525;BME280;55524;51.380;13.372;2023-05-22T12:09:55;100005.94;;;30.62;30.93
68525;BME280;55524;51.380;13.372;2023-05-22T12:12:23;100024.81;;;30.14;32.71
68525;BME280;55524;51.380;13.372;2023-05-22T12:14:49;100010.97;;;30.58;31.41
68525;BME280;55524;51.380;13.372;2023-05-22T12:17:17;99986.84;;;30.62;28.39
68525;BME280;55524;51.380;13.372;2023-05-22T12:19:44;99978.16;;;30.80;28.99
68525;BME280;55524;51.380;13.372;2023-05-22T12:22:12;99980.06;;;30.08;29.42
68525;BME280;55524;51.380;13.372;2023-05-22T12:24:43;99995.84;;;29.55;31.43
68525;BME280;55524;51.380;13.372;2023-05-22T12:27:13;99983.97;;;29.78;29.54
68525;BME280;55524;51.380;13.372;2023-05-22T12:29:40;99975.88;;;30.27;29.83
68525;BME280;55524;51.380;13.372;2023-05-22T12:32:11;99979.56;;;29.98;28.82
68525;BME280;55524;51.380;13.372;2023-05-22T12:34:48;99981.69;;;29.60;29.55
68525;BME280;55524;51.380;13.372;2023-05-22T12:37:23;100000.03;;;30.30;30.75
68525;BME280;55524;51.380;13.372;2023-05-22T12:39:57;99996.16;;;30.18;31.18
68525;BME280;55524;51.380;13.372;2023-05-22T12:42:27;99973.31;;;30.47;28.81
68525;BME280;55524;51.380;13.372;2023-05-22T12:44:55;99967.09;;;30.32;28.65
68525;BME280;55524;51.380;13.372;2023-05-22T12:47:23;99968.06;;;30.74;29.09
68525;BME280;55524;51.380;13.372;2023-05-22T12:49:49;99967.31;;;29.87;28.71
68525;BME280;55524;51.380;13.372;2023-05-22T12:52:16;99985.81;;;30.63;31.06
68525;BME280;55524;51.380;13.372;2023-05-22T12:54:43;99975.03;;;30.55;29.50
68525;BME280;55524;51.380;13.372;2023-05-22T12:57:09;99988.28;;;30.30;31.71
68525;BME280;55524;51.380;13.372;2023-05-22T12:59:36;100012.41;;;30.54;34.88
68525;BME280;55524;51.380;13.372;2023-05-22T13:02:04;99985.66;;;30.00;31.22
68525;BME280;55524;51.380;13.372;2023-05-22T13:04:30;100008.38;;;29.86;35.61
68525;BME280;55524;51.380;13.372;2023-05-22T13:06:57;99988.97;;;29.74;31.73
68525;BME280;55524;51.380;13.372;2023-05-22T13:09:23;99985.50;;;29.65;32.31
68525;BME280;55524;51.380;13.372;2023-05-22T13:11:50;99970.94;;;29.95;31.34